createdAt,value
2017-05-26T00:01:25.418Z,18.60
2017-05-26T00:03:53.718Z,18.50
2017-05-26T00:06:22.663Z,18.50
2017-05-26T00:08:50.979Z,18.50
2017-05-26T00:11:19.350Z,18.40
2017-05-26T00:13:47.383Z,18.40
2017-05-26T00:16:15.344Z,18.40
2017-05-26T00:18:43.279Z,18.40
2017-05-26T00:21:12.081Z,18.30
2017-05-26T00:23:40.395Z,18.30
2017-05-26T00:26:08.701Z,18.30
2017-05-26T00:28:37.803Z,18.30
2017-05-26T00:31:06.105Z,18.30
2017-05-26T00:33:34.440Z,18.30
2017-05-26T00:36:02.792Z,18.20
2017-05-26T00:38:31.105Z,18.20
2017-05-26T00:40:59.035Z,18.20
2017-05-26T00:43:27.549Z,18.10
2017-05-26T00:45:56.008Z,18.10
2017-05-26T00:48:23.958Z,18.10
2017-05-26T00:50:53.367Z,18.10
2017-05-26T00:58:19.516Z,18.10
2017-05-26T01:00:47.450Z,18.00
2017-05-26T01:03:15.453Z,18.00
2017-05-26T01:05:44.935Z,18.00
2017-05-26T01:08:13.636Z,17.90
2017-05-26T01:10:41.946Z,17.90
2017-05-26T01:13:10.290Z,17.80
2017-05-26T01:15:38.605Z,17.80
2017-05-26T01:23:05.208Z,17.70
2017-05-26T01:25:33.130Z,17.70
2017-05-26T01:28:01.490Z,17.70
2017-05-26T01:30:30.536Z,17.60
2017-05-26T01:32:59.042Z,17.60
2017-05-26T01:37:57.074Z,17.50
2017-05-26T01:40:25.043Z,17.40
2017-05-26T01:42:53.391Z,17.40
2017-05-26T01:45:21.328Z,17.40
2017-05-26T01:47:49.260Z,17.40
2017-05-26T01:50:17.607Z,17.40
2017-05-26T01:52:45.943Z,17.40
2017-05-26T01:55:13.925Z,17.30
2017-05-26T01:57:42.304Z,17.30
2017-05-26T02:00:10.617Z,17.30
2017-05-26T02:02:38.927Z,17.30
2017-05-26T02:05:06.938Z,17.30
2017-05-26T02:07:35.249Z,17.30
2017-05-26T02:10:03.555Z,17.20
2017-05-26T02:12:32.227Z,17.20
2017-05-26T02:15:00.550Z,17.10
2017-05-26T02:17:28.881Z,17.00
2017-05-26T02:19:56.920Z,17.00
2017-05-26T02:22:24.861Z,17.00
2017-05-26T02:24:53.920Z,17.00
2017-05-26T02:29:51.305Z,17.00
2017-05-26T02:32:19.615Z,17.00
2017-05-26T02:37:16.847Z,17.00
2017-05-26T02:42:14.606Z,17.00
2017-05-26T02:44:42.539Z,17.10
2017-05-26T02:47:10.839Z,17.00
2017-05-26T02:49:39.323Z,17.00
2017-05-26T02:52:07.251Z,17.00
2017-05-26T02:54:34.793Z,17.00
2017-05-26T02:57:03.163Z,16.90
2017-05-26T03:02:01.262Z,17.00
2017-05-26T03:04:29.265Z,17.00
2017-05-26T03:06:57.247Z,16.90
2017-05-26T03:09:25.248Z,16.90
2017-05-26T03:11:53.641Z,16.90
2017-05-26T03:14:21.721Z,16.90
2017-05-26T03:21:48.931Z,16.80
2017-05-26T03:26:46.543Z,16.80
2017-05-26T03:29:14.912Z,16.80
2017-05-26T03:31:43.242Z,16.90
2017-05-26T03:34:11.223Z,16.80
2017-05-26T03:39:08.475Z,16.80
2017-05-26T03:41:36.460Z,16.70
2017-05-26T03:44:04.763Z,16.70
2017-05-26T03:46:32.695Z,16.70
2017-05-26T03:49:01.423Z,16.70
2017-05-26T03:51:29.739Z,16.70
2017-05-26T03:53:58.068Z,16.70
2017-05-26T03:58:55.743Z,16.70
2017-05-26T04:01:24.054Z,16.70
2017-05-26T04:03:52.949Z,16.70
2017-05-26T04:08:50.531Z,16.70
2017-05-26T04:11:18.928Z,16.70
2017-05-26T04:13:46.881Z,16.60
2017-05-26T04:16:15.215Z,16.60
2017-05-26T04:18:43.919Z,16.60
2017-05-26T04:26:10.443Z,16.70
2017-05-26T04:28:38.840Z,16.70
2017-05-26T04:31:06.788Z,16.60
2017-05-26T04:33:34.795Z,16.60
2017-05-26T04:36:03.095Z,16.70
2017-05-26T04:38:31.399Z,16.60
2017-05-26T04:40:59.791Z,16.60
2017-05-26T04:43:28.125Z,16.70
2017-05-26T04:45:56.090Z,16.70
2017-05-26T04:48:24.080Z,16.70
2017-05-26T04:50:52.382Z,16.70
2017-05-26T04:53:20.685Z,16.80
2017-05-26T04:55:49.036Z,16.80
2017-05-26T04:58:18.124Z,16.90
2017-05-26T05:00:46.127Z,16.90
2017-05-26T05:03:14.429Z,16.90
2017-05-26T05:05:42.371Z,16.90
2017-05-26T05:08:10.372Z,17.10
2017-05-26T05:10:38.634Z,17.00
2017-05-26T05:13:06.575Z,17.10
2017-05-26T05:15:34.887Z,17.10
2017-05-26T05:18:03.614Z,17.10
2017-05-26T05:20:31.932Z,17.10
2017-05-26T05:23:00.247Z,17.00
2017-05-26T05:25:28.642Z,17.00
2017-05-26T05:27:57.729Z,17.10
2017-05-26T05:30:26.042Z,17.10
2017-05-26T05:32:54.548Z,17.20
2017-05-26T05:35:22.507Z,17.20
2017-05-26T05:37:51.184Z,17.30
2017-05-26T05:40:19.167Z,17.40
2017-05-26T05:42:47.835Z,17.40
2017-05-26T05:45:16.164Z,17.40
2017-05-26T05:47:44.147Z,17.50
2017-05-26T05:50:12.451Z,17.60
2017-05-26T05:52:40.383Z,17.40
2017-05-26T05:57:38.779Z,17.60
2017-05-26T06:00:06.710Z,17.60
2017-05-26T06:02:35.072Z,17.70
2017-05-26T06:05:03.009Z,17.80
2017-05-26T06:07:31.682Z,17.90
2017-05-26T06:10:00.062Z,18.00
2017-05-26T06:12:28.022Z,18.10
2017-05-26T06:14:56.365Z,18.10
2017-05-26T06:17:24.730Z,18.20
2017-05-26T06:19:53.035Z,18.30
2017-05-26T06:22:20.963Z,18.40
2017-05-26T06:24:50.098Z,18.40
2017-05-26T06:27:18.014Z,18.70
2017-05-26T06:29:45.957Z,18.90
2017-05-26T06:32:14.162Z,19.00
2017-05-26T06:34:42.259Z,19.20
2017-05-26T06:37:10.187Z,19.60
2017-05-26T06:39:38.530Z,19.80
2017-05-26T06:42:06.830Z,20.00
2017-05-26T06:44:35.123Z,20.30
2017-05-26T06:47:03.466Z,20.50
2017-05-26T06:49:31.412Z,20.80
2017-05-26T06:52:00.095Z,21.00
2017-05-26T06:54:28.076Z,21.40
2017-05-26T06:56:56.415Z,21.60
2017-05-26T06:59:24.384Z,21.80
2017-05-26T07:01:52.723Z,22.20
2017-05-26T07:04:21.865Z,22.30
2017-05-26T07:06:49.795Z,22.80
2017-05-26T07:09:17.775Z,23.30
2017-05-26T07:11:46.098Z,23.30
2017-05-26T07:16:43.375Z,23.60
2017-05-26T07:19:12.179Z,23.30
2017-05-26T07:21:40.474Z,23.10
2017-05-26T07:24:08.815Z,23.10
2017-05-26T07:26:37.508Z,23.00
2017-05-26T07:29:05.827Z,23.10
2017-05-26T07:31:34.171Z,23.10
2017-05-26T07:36:30.994Z,23.40
2017-05-26T07:38:59.350Z,23.50
2017-05-26T07:41:27.292Z,23.60
2017-05-26T07:43:56.461Z,23.70
2017-05-26T07:46:25.068Z,23.90
2017-05-26T07:48:54.128Z,23.80
2017-05-26T07:51:22.449Z,23.90
2017-05-26T07:53:50.483Z,24.10
2017-05-26T07:56:18.904Z,23.90
2017-05-26T07:58:47.225Z,23.70
2017-05-26T08:01:16.355Z,23.80
2017-05-26T08:03:44.291Z,23.70
2017-05-26T08:06:12.591Z,23.80
2017-05-26T08:08:40.943Z,24.00
2017-05-26T08:11:09.614Z,24.00
2017-05-26T08:13:37.911Z,23.80
2017-05-26T08:16:06.999Z,23.80
2017-05-26T08:18:34.939Z,24.10
2017-05-26T08:21:03.247Z,24.30
2017-05-26T08:23:31.241Z,24.60
2017-05-26T08:25:59.551Z,24.80
2017-05-26T08:28:27.504Z,24.90
2017-05-26T08:30:55.490Z,25.00
2017-05-26T08:33:23.825Z,24.80
2017-05-26T08:35:52.127Z,24.70
2017-05-26T08:38:20.995Z,25.00
2017-05-26T08:40:50.060Z,25.10
2017-05-26T08:43:17.986Z,25.00
2017-05-26T08:45:46.366Z,25.40
2017-05-26T08:48:14.675Z,25.50
2017-05-26T08:50:42.606Z,25.30
2017-05-26T08:53:10.957Z,25.30
2017-05-26T08:55:39.328Z,25.80
2017-05-26T08:58:07.627Z,26.00
2017-05-26T09:00:35.734Z,26.40
2017-05-26T09:03:04.031Z,26.70
2017-05-26T09:05:32.326Z,26.80
2017-05-26T09:08:00.315Z,26.90
2017-05-26T09:10:29.372Z,26.90
2017-05-26T09:12:57.359Z,27.10
2017-05-26T09:15:25.729Z,27.10
2017-05-26T09:17:54.047Z,27.10
2017-05-26T09:22:52.059Z,27.00
2017-05-26T09:25:20.059Z,27.00
2017-05-26T09:27:48.371Z,27.40
2017-05-26T09:30:16.813Z,27.30
2017-05-26T09:32:45.253Z,27.40
2017-05-26T09:35:13.189Z,27.40
2017-05-26T09:37:41.172Z,27.40
2017-05-26T09:42:38.723Z,27.60
2017-05-26T09:45:07.815Z,27.70
2017-05-26T09:47:36.128Z,28.10
2017-05-26T09:50:05.171Z,28.40
2017-05-26T09:52:33.208Z,28.30
2017-05-26T09:55:01.542Z,28.40
2017-05-26T09:57:29.542Z,28.30
2017-05-26T09:59:58.046Z,27.90
2017-05-26T10:04:55.703Z,28.50
2017-05-26T10:07:24.431Z,28.70
2017-05-26T10:09:52.727Z,29.00
2017-05-26T10:12:21.023Z,29.00
2017-05-26T10:14:49.368Z,29.00
2017-05-26T10:17:16.914Z,29.00
2017-05-26T10:19:45.226Z,29.00
2017-05-26T10:22:13.577Z,28.90
2017-05-26T10:24:41.508Z,29.10
2017-05-26T10:27:09.807Z,29.10
2017-05-26T10:29:38.923Z,29.10
2017-05-26T10:32:06.865Z,29.20
2017-05-26T10:34:35.175Z,29.30
2017-05-26T10:37:03.147Z,29.50
2017-05-26T10:39:31.471Z,29.80
2017-05-26T10:41:59.427Z,29.80
2017-05-26T10:44:28.158Z,29.90
2017-05-26T10:46:56.485Z,30.10
2017-05-26T10:49:24.803Z,29.70
2017-05-26T10:54:22.424Z,29.90
2017-05-26T10:56:50.366Z,30.10
2017-05-26T10:59:19.032Z,30.10
2017-05-26T11:01:46.972Z,30.10
2017-05-26T11:04:15.299Z,30.10
2017-05-26T11:06:44.739Z,30.30
2017-05-26T11:09:12.672Z,30.40
2017-05-26T11:11:40.603Z,30.60
2017-05-26T11:14:08.954Z,30.60
2017-05-26T11:19:15.068Z,30.70
2017-05-26T11:21:43.015Z,30.80
2017-05-26T11:24:11.310Z,30.60
2017-05-26T11:26:39.283Z,30.30
2017-05-26T11:29:07.583Z,30.20
2017-05-26T11:31:35.884Z,30.20
2017-05-26T11:34:03.871Z,30.30
2017-05-26T11:36:32.176Z,30.40
2017-05-26T11:39:00.509Z,30.40
2017-05-26T11:41:28.887Z,30.50
2017-05-26T11:43:58.879Z,30.50
2017-05-26T11:46:27.199Z,30.60
2017-05-26T11:51:24.478Z,30.80
2017-05-26T11:53:52.783Z,30.40
2017-05-26T11:56:20.758Z,29.90
2017-05-26T12:03:47.270Z,30.10
2017-05-26T12:06:15.240Z,30.20
2017-05-26T12:08:43.182Z,30.20
2017-05-26T12:11:11.534Z,30.40
2017-05-26T12:13:39.839Z,30.50
2017-05-26T12:16:07.779Z,30.60
2017-05-26T12:18:36.135Z,30.60
2017-05-26T12:21:04.435Z,30.80
2017-05-26T12:31:00.211Z,31.10
2017-05-26T12:33:28.587Z,31.30
2017-05-26T12:35:56.920Z,31.30
2017-05-26T12:40:55.483Z,31.30
2017-05-26T12:45:53.091Z,31.00
2017-05-26T12:48:21.448Z,31.10
2017-05-26T12:50:49.754Z,31.30
2017-05-26T12:53:17.691Z,31.30
2017-05-26T12:55:45.686Z,31.00
2017-05-26T12:58:14.015Z,30.50
2017-05-26T13:00:41.972Z,30.80
2017-05-26T13:03:10.327Z,30.90
2017-05-26T13:05:38.631Z,30.90
2017-05-26T13:08:06.931Z,31.00
2017-05-26T13:10:35.279Z,31.10
2017-05-26T13:15:32.467Z,31.10
2017-05-26T13:18:00.838Z,31.20
2017-05-26T13:20:29.156Z,31.10
2017-05-26T13:22:56.718Z,31.00
2017-05-26T13:25:24.708Z,30.90
2017-05-26T13:27:52.639Z,31.00
2017-05-26T13:30:20.955Z,31.00
2017-05-26T13:32:49.299Z,31.10
2017-05-26T13:35:18.338Z,31.10
2017-05-26T13:37:46.662Z,30.90
2017-05-26T13:40:16.076Z,30.90
2017-05-26T13:42:44.032Z,30.90
2017-05-26T13:45:12.344Z,30.60
2017-05-26T13:47:41.003Z,30.70
2017-05-26T13:50:11.191Z,30.50
2017-05-26T13:52:39.126Z,30.70
2017-05-26T13:55:07.366Z,30.60
2017-05-26T13:57:36.035Z,30.30
2017-05-26T14:00:04.330Z,30.30
2017-05-26T14:02:32.340Z,30.20
2017-05-26T14:05:00.665Z,30.30
2017-05-26T14:07:28.637Z,30.40
2017-05-26T14:09:56.680Z,30.30
2017-05-26T14:12:24.990Z,30.20
2017-05-26T14:14:52.982Z,30.00
2017-05-26T14:17:21.331Z,29.90
2017-05-26T14:19:49.643Z,29.80
2017-05-26T14:22:18.083Z,29.60
2017-05-26T14:24:46.139Z,29.30
2017-05-26T14:27:14.096Z,29.10
2017-05-26T14:29:42.452Z,29.00
2017-05-26T14:32:10.799Z,29.00
2017-05-26T14:34:38.735Z,28.90
2017-05-26T14:39:36.000Z,28.70
2017-05-26T14:42:04.307Z,28.60
2017-05-26T14:44:32.266Z,28.50
2017-05-26T14:47:01.032Z,28.50
2017-05-26T14:49:29.360Z,28.40
2017-05-26T14:51:57.687Z,28.20
2017-05-26T14:54:26.063Z,28.30
2017-05-26T14:56:54.738Z,28.30
2017-05-26T14:59:23.787Z,28.30
2017-05-26T15:01:52.163Z,28.20
2017-05-26T15:04:20.490Z,28.10
2017-05-26T15:11:46.256Z,28.00
2017-05-26T15:14:14.574Z,28.00
2017-05-26T15:16:43.276Z,27.90
2017-05-26T15:19:12.078Z,27.90
2017-05-26T15:21:40.109Z,27.70
2017-05-26T15:24:08.487Z,27.60
2017-05-26T15:26:37.289Z,27.60
2017-05-26T15:29:06.436Z,27.40
2017-05-26T15:31:34.432Z,27.50
2017-05-26T15:34:02.384Z,27.40
2017-05-26T15:36:31.074Z,27.50
2017-05-26T15:38:59.671Z,27.40
2017-05-26T15:41:27.992Z,27.40
2017-05-26T15:43:56.324Z,27.40
2017-05-26T15:46:24.307Z,27.30
2017-05-26T15:53:50.508Z,27.40
2017-05-26T15:56:18.491Z,27.30
2017-05-26T15:58:46.819Z,27.30
2017-05-26T16:01:15.511Z,27.30
2017-05-26T16:03:43.858Z,27.10
2017-05-26T16:06:12.167Z,27.10
2017-05-26T16:08:40.152Z,27.20
2017-05-26T16:11:08.087Z,27.20
2017-05-26T16:13:36.387Z,27.20
2017-05-26T16:16:04.694Z,27.20
2017-05-26T16:18:32.659Z,27.10
2017-05-26T16:21:00.607Z,27.10
2017-05-26T16:23:28.991Z,27.10
2017-05-26T16:25:57.316Z,27.00
2017-05-26T16:28:26.026Z,27.00
2017-05-26T16:33:23.256Z,27.00
2017-05-26T16:35:51.283Z,27.00
2017-05-26T16:38:19.643Z,27.00
2017-05-26T16:40:47.578Z,27.10
2017-05-26T16:43:15.507Z,27.10
2017-05-26T16:45:43.859Z,27.10
2017-05-26T16:48:11.802Z,27.00
2017-05-26T16:58:06.788Z,26.80
2017-05-26T17:00:35.444Z,26.80
2017-05-26T17:03:03.784Z,26.80
2017-05-26T17:08:01.124Z,26.70
2017-05-26T17:10:29.482Z,26.80
2017-05-26T17:12:57.933Z,26.70
2017-05-26T17:15:25.985Z,26.60
2017-05-26T17:17:53.927Z,26.60
2017-05-26T17:20:22.235Z,26.60
2017-05-26T17:22:50.632Z,26.60
2017-05-26T17:25:19.321Z,26.60
2017-05-26T17:27:47.639Z,26.60
2017-05-26T17:30:15.987Z,26.50
2017-05-26T17:32:43.918Z,26.40
2017-05-26T17:35:12.216Z,26.40
2017-05-26T17:37:40.208Z,26.30
2017-05-26T17:40:08.140Z,26.30
2017-05-26T17:42:36.451Z,26.30
2017-05-26T17:45:05.175Z,26.20
2017-05-26T17:47:33.493Z,26.20
2017-05-26T17:50:01.811Z,26.10
2017-05-26T17:52:29.832Z,26.20
2017-05-26T17:54:58.159Z,26.10
2017-05-26T17:57:26.847Z,26.00
2017-05-26T17:59:56.007Z,26.10
2017-05-26T18:02:24.331Z,26.00
2017-05-26T18:04:52.290Z,26.10
2017-05-26T18:07:21.191Z,26.10
2017-05-26T18:09:49.491Z,26.10
2017-05-26T18:12:17.811Z,26.10
2017-05-26T18:14:46.459Z,26.00
2017-05-26T18:17:14.767Z,26.10
2017-05-26T18:19:43.110Z,26.00
2017-05-26T18:22:12.555Z,26.00
2017-05-26T18:24:40.855Z,26.00
2017-05-26T18:27:09.155Z,25.90
2017-05-26T18:29:37.503Z,25.90
2017-05-26T18:32:05.805Z,25.90
2017-05-26T18:37:02.751Z,25.90
2017-05-26T18:39:30.709Z,25.80
2017-05-26T18:41:59.069Z,25.80
2017-05-26T18:44:27.797Z,25.80
2017-05-26T18:46:56.573Z,25.90
2017-05-26T18:49:25.415Z,25.70
2017-05-26T18:51:53.456Z,25.70
2017-05-26T18:54:21.402Z,25.60
2017-05-26T18:56:50.005Z,25.70
2017-05-26T18:59:18.628Z,25.60
2017-05-26T19:01:46.962Z,25.60
2017-05-26T19:04:15.324Z,25.50
2017-05-26T19:06:44.450Z,25.60
2017-05-26T19:09:12.760Z,25.50
2017-05-26T19:11:41.082Z,25.50
2017-05-26T19:14:09.119Z,25.40
2017-05-26T19:16:37.055Z,25.40
2017-05-26T19:19:05.365Z,25.40
2017-05-26T19:21:33.730Z,25.50
2017-05-26T19:24:02.097Z,25.40
2017-05-26T19:28:59.148Z,25.30
2017-05-26T19:31:27.120Z,25.10
2017-05-26T19:33:56.172Z,25.10
2017-05-26T19:36:24.528Z,25.10
2017-05-26T19:38:53.598Z,24.90
2017-05-26T19:41:21.623Z,25.00
2017-05-26T19:43:49.615Z,25.00
2017-05-26T19:46:17.920Z,24.90
2017-05-26T19:48:46.238Z,24.90
2017-05-26T19:51:14.222Z,24.70
2017-05-26T19:58:40.659Z,24.60
2017-05-26T20:01:09.344Z,24.60
2017-05-26T20:03:37.658Z,24.50
2017-05-26T20:06:06.020Z,24.50
2017-05-26T20:08:35.095Z,24.50
2017-05-26T20:11:03.047Z,24.50
2017-05-26T20:13:31.737Z,24.40
2017-05-26T20:16:00.092Z,24.40
2017-05-26T20:18:27.643Z,24.30
2017-05-26T20:20:56.373Z,24.30
2017-05-26T20:23:24.685Z,24.30
2017-05-26T20:25:55.819Z,24.30
2017-05-26T20:28:23.995Z,24.20
2017-05-26T20:30:51.928Z,24.20
2017-05-26T20:33:19.862Z,24.10
2017-05-26T20:35:48.675Z,24.00
2017-05-26T20:38:16.983Z,23.90
2017-05-26T20:40:44.915Z,23.90
2017-05-26T20:43:13.264Z,23.80
2017-05-26T20:48:10.500Z,23.80
2017-05-26T20:50:38.852Z,23.70
2017-05-26T20:53:06.793Z,23.70
2017-05-26T20:55:35.140Z,23.70
2017-05-26T20:58:03.528Z,23.70
2017-05-26T21:00:31.867Z,23.50
2017-05-26T21:03:00.332Z,23.50
2017-05-26T21:07:57.616Z,23.50
2017-05-26T21:10:25.939Z,23.40
2017-05-26T21:12:54.347Z,23.40
2017-05-26T21:15:22.661Z,23.40
2017-05-26T21:17:50.621Z,23.40
2017-05-26T21:20:18.613Z,23.30
2017-05-26T21:27:45.104Z,23.10
2017-05-26T21:30:13.775Z,23.00
2017-05-26T21:32:43.310Z,23.10
2017-05-26T21:37:40.840Z,23.00
2017-05-26T21:40:08.788Z,22.90
2017-05-26T21:42:37.227Z,22.90
2017-05-26T21:45:05.190Z,22.80
2017-05-26T21:47:33.208Z,22.80
2017-05-26T21:50:01.725Z,22.70
2017-05-26T21:52:30.069Z,22.60
2017-05-26T21:54:58.054Z,22.60
2017-05-26T21:57:26.804Z,22.60
2017-05-26T21:59:55.428Z,22.60
2017-05-26T22:02:25.075Z,22.50
2017-05-26T22:04:53.473Z,22.50
2017-05-26T22:07:22.227Z,22.50
2017-05-26T22:09:50.176Z,22.40
2017-05-26T22:12:19.769Z,22.40
2017-05-26T22:14:48.451Z,22.30
2017-05-26T22:17:16.775Z,22.30
2017-05-26T22:19:44.772Z,22.30
2017-05-26T22:22:12.715Z,22.30
2017-05-26T22:27:09.943Z,22.30
2017-05-26T22:34:35.792Z,22.40
2017-05-26T22:37:04.103Z,22.30
2017-05-26T22:39:32.048Z,22.30
2017-05-26T22:42:00.797Z,22.20
2017-05-26T22:44:28.831Z,22.20
2017-05-26T22:46:56.866Z,22.20
2017-05-26T22:49:25.408Z,22.10
2017-05-26T22:54:22.307Z,22.10
2017-05-26T22:56:50.646Z,22.20
2017-05-26T22:59:18.587Z,22.10
2017-05-26T23:01:46.527Z,22.10
2017-05-26T23:04:14.924Z,22.00
2017-05-26T23:06:43.752Z,22.00
2017-05-26T23:11:41.290Z,21.90
2017-05-26T23:14:09.229Z,21.90
2017-05-26T23:16:37.158Z,21.80
2017-05-26T23:19:05.902Z,21.70
2017-05-26T23:21:34.205Z,21.60
2017-05-26T23:24:02.151Z,21.60
2017-05-26T23:26:30.567Z,21.60
2017-05-26T23:28:58.516Z,21.60
2017-05-26T23:31:26.863Z,21.60
2017-05-26T23:36:24.241Z,21.60
2017-05-26T23:38:52.183Z,21.50
2017-05-26T23:41:20.538Z,21.50
2017-05-26T23:43:48.467Z,21.40
2017-05-26T23:46:16.816Z,21.40
2017-05-26T23:48:44.810Z,21.30
2017-05-26T23:51:13.139Z,21.30
2017-05-26T23:53:41.141Z,21.40
2017-05-26T23:56:09.142Z,21.30
2017-05-26T23:58:37.830Z,21.20
